createdAt,value
2022-12-19T00:00:54.620Z,91
2022-12-19T00:10:55.461Z,92
2022-12-19T00:30:56.965Z,93
2022-12-19T00:40:57.052Z,93
2022-12-19T00:50:57.924Z,93
2022-12-19T01:00:58.643Z,93
2022-12-19T01:21:00.127Z,95
2022-12-19T01:31:00.842Z,94
2022-12-19T01:41:01.204Z,94
2022-12-19T01:51:02.633Z,94
2022-12-19T02:01:01.956Z,94
2022-12-19T02:11:02.612Z,93
2022-12-19T02:21:03.212Z,94
2022-12-19T02:31:05.371Z,95
2022-12-19T02:41:03.642Z,95
2022-12-19T02:51:03.757Z,95
2022-12-19T03:01:04.887Z,94
2022-12-19T03:11:05.789Z,93
2022-12-19T03:21:05.964Z,92
2022-12-19T03:31:06.050Z,92
2022-12-19T03:41:07.004Z,92
2022-12-19T03:51:07.959Z,92
2022-12-19T04:01:08.870Z,91
2022-12-19T04:11:09.647Z,91
2022-12-19T04:21:09.900Z,93
2022-12-19T04:31:10.898Z,95
2022-12-19T04:41:11.532Z,95
2022-12-19T04:51:11.820Z,95
2022-12-19T05:01:12.103Z,96
2022-12-19T05:11:17.472Z,98
2022-12-19T05:21:13.138Z,99
2022-12-19T05:31:13.993Z,98
2022-12-19T05:41:14.373Z,98
2022-12-19T05:51:15.098Z,98
2022-12-19T06:01:15.705Z,98
2022-12-19T06:11:15.771Z,99
2022-12-19T06:21:16.548Z,99
2022-12-19T06:31:16.974Z,99
2022-12-19T06:41:17.623Z,99
2022-12-19T06:51:17.768Z,100
2022-12-19T07:01:18.237Z,100
2022-12-19T07:21:19.124Z,99
2022-12-19T07:31:19.619Z,98
2022-12-19T07:41:20.500Z,98
2022-12-19T07:51:20.660Z,98
2022-12-19T08:01:21.657Z,98
2022-12-19T08:11:21.872Z,98
2022-12-19T08:31:23.703Z,97
2022-12-19T08:41:24.000Z,97
2022-12-19T08:51:24.482Z,96
2022-12-19T09:01:25.078Z,96
2022-12-19T09:11:25.999Z,96
2022-12-19T09:21:26.860Z,96
2022-12-19T09:31:27.362Z,96
2022-12-19T09:41:28.204Z,95
2022-12-19T09:51:28.903Z,95
2022-12-19T10:12:41.654Z,94
2022-12-19T10:21:51.171Z,94
2022-12-19T10:31:31.057Z,94
2022-12-19T10:41:31.290Z,94
2022-12-19T10:51:32.105Z,94
2022-12-19T11:01:33.250Z,93
2022-12-19T11:12:18.169Z,92
2022-12-19T11:28:40.045Z,91
2022-12-19T11:32:20.964Z,91
2022-12-19T11:34:12.865Z,91
2022-12-19T11:41:43.030Z,90
2022-12-19T11:51:43.493Z,91
2022-12-19T12:01:43.962Z,90
2022-12-19T12:13:24.720Z,89
2022-12-19T12:28:40.251Z,89
2022-12-19T12:35:26.347Z,88
2022-12-19T12:41:45.811Z,87
2022-12-19T13:01:47.011Z,85
2022-12-19T13:11:47.597Z,85
2022-12-19T13:21:47.804Z,84
2022-12-19T13:31:48.290Z,83
2022-12-19T13:41:48.375Z,82
2022-12-19T13:51:49.012Z,82
2022-12-19T14:01:49.485Z,81
2022-12-19T14:12:19.872Z,81
2022-12-19T14:22:08.206Z,80
2022-12-19T14:31:53.363Z,81
2022-12-19T14:41:54.645Z,81
2022-12-19T14:54:18.914Z,81
2022-12-19T15:01:53.594Z,81
2022-12-19T15:12:04.410Z,81
2022-12-19T15:31:55.361Z,81
2022-12-19T15:51:55.862Z,81
2022-12-19T16:01:56.857Z,81
2022-12-19T16:11:57.777Z,81
2022-12-19T17:32:04.847Z,81
2022-12-19T17:52:06.389Z,81
2022-12-19T18:12:07.754Z,81
2022-12-19T18:22:07.868Z,81
2022-12-19T18:32:08.872Z,81
2022-12-19T18:52:10.232Z,81
2022-12-19T19:02:10.897Z,81
2022-12-19T19:12:11.024Z,81
2022-12-19T19:32:12.185Z,81
2022-12-19T19:42:12.468Z,81
2022-12-19T19:52:13.249Z,81
2022-12-19T20:02:13.732Z,81
2022-12-19T20:12:13.839Z,81
2022-12-19T20:22:14.706Z,81
2022-12-19T20:32:15.250Z,81
2022-12-19T20:42:15.642Z,82
2022-12-19T20:52:16.281Z,83
2022-12-19T21:02:17.051Z,82
2022-12-19T21:12:17.555Z,83
2022-12-19T21:22:18.275Z,83
2022-12-19T21:32:19.288Z,83
2022-12-19T21:42:19.030Z,84
2022-12-19T21:52:20.069Z,84
2022-12-19T22:02:21.206Z,84
2022-12-19T22:12:21.557Z,84
2022-12-19T22:22:21.914Z,85
2022-12-19T22:32:22.429Z,86
2022-12-19T22:42:23.276Z,86
2022-12-19T22:52:23.708Z,85
2022-12-19T23:02:24.402Z,85
2022-12-19T23:12:25.025Z,85
2022-12-19T23:22:25.425Z,85
2022-12-19T23:32:26.386Z,85
2022-12-19T23:42:26.683Z,84
2022-12-19T23:52:27.385Z,83
